Time;durP1;ratioP1;P1;durP2;ratioP2;P2;SDS_P1;SDS_P2;PMS_P1;PMS_P2;Temp;Humidity;BMP_temperature;BMP_pressure;BME280_temperature;BME280_humidity;BME280_pressure;Samples;Min_cycle;Max_cycle;Signal;HPM_P1;HPM_P2
2022/04/20 00:00:27;;;;;;;2.50;2.00;;;7.10;99.90;;;;;;5160051;28;20201;-45
2022/04/20 00:02:57;;;;;;;7.90;2.30;;;7.10;99.90;;;;;;5180805;28;20250;-45
2022/04/20 00:05:28;;;;;;;4.77;2.60;;;7.20;99.90;;;;;;5177312;28;20566;-45
2022/04/20 00:07:59;;;;;;;6.30;2.43;;;7.20;99.90;;;;;;5178786;28;20238;-44
2022/04/20 00:10:30;;;;;;;4.57;2.57;;;7.20;99.90;;;;;;5160743;28;20295;-45
2022/04/20 00:13:01;;;;;;;3.00;1.80;;;7.10;99.90;;;;;;5163327;28;20539;-44
2022/04/20 00:15:31;;;;;;;4.00;2.50;;;7.20;99.90;;;;;;5180626;28;20642;-45
2022/04/20 00:18:02;;;;;;;2.40;1.97;;;7.20;99.90;;;;;;5186449;28;20205;-45
2022/04/20 00:20:32;;;;;;;5.60;1.87;;;7.20;99.90;;;;;;5181881;28;20691;-44
2022/04/20 00:23:03;;;;;;;4.03;2.17;;;7.20;99.90;;;;;;5180101;28;20205;-45
2022/04/20 00:25:34;;;;;;;5.90;2.30;;;7.10;99.90;;;;;;5183338;28;20184;-45
2022/04/20 00:28:05;;;;;;;3.40;2.70;;;7.10;99.90;;;;;;5183030;28;20246;-45
2022/04/20 00:30:35;;;;;;;4.43;2.83;;;7.00;99.90;;;;;;5163508;28;20439;-44
2022/04/20 00:33:06;;;;;;;2.30;2.00;;;7.00;99.90;;;;;;5184134;28;20242;-45
2022/04/20 00:35:36;;;;;;;2.60;2.00;;;7.00;99.90;;;;;;5179596;28;20326;-46
2022/04/20 00:38:07;;;;;;;2.70;2.50;;;6.90;99.90;;;;;;5154887;28;20254;-44
2022/04/20 00:40:37;;;;;;;3.83;2.30;;;6.90;99.90;;;;;;5180231;28;20239;-45
2022/04/20 00:43:08;;;;;;;7.67;3.40;;;6.90;99.90;;;;;;5156780;28;20239;-44
2022/04/20 00:45:40;;;;;;;12.10;3.00;;;6.80;99.90;;;;;;5175211;28;20193;-44
2022/04/20 00:48:11;;;;;;;4.53;2.53;;;6.80;99.90;;;;;;5173456;28;20194;-46
2022/04/20 00:50:42;;;;;;;4.47;2.20;;;6.70;99.90;;;;;;5163626;28;20488;-44
2022/04/20 00:53:13;;;;;;;6.83;3.13;;;6.70;99.90;;;;;;5155391;28;20444;-45
2022/04/20 00:55:44;;;;;;;3.97;2.53;;;6.70;99.90;;;;;;5156462;28;20440;-44
2022/04/20 00:58:14;;;;;;;4.10;2.03;;;6.70;99.90;;;;;;5174172;28;20212;-44
2022/04/20 01:00:45;;;;;;;13.17;3.30;;;6.60;99.90;;;;;;5179747;28;20537;-44
2022/04/20 01:03:16;;;;;;;3.07;2.87;;;6.60;99.90;;;;;;5175216;28;20212;-45
2022/04/20 01:05:46;;;;;;;5.43;2.83;;;6.60;99.90;;;;;;5176099;28;20457;-45
2022/04/20 01:08:17;;;;;;;3.37;2.37;;;6.60;99.90;;;;;;5159945;28;20179;-43
2022/04/20 01:10:47;;;;;;;4.10;2.27;;;6.60;99.90;;;;;;5180286;28;20631;-45
2022/04/20 01:13:17;;;;;;;3.90;2.10;;;6.60;99.90;;;;;;5176785;28;20206;-44
2022/04/20 01:15:48;;;;;;;4.50;2.60;;;6.70;99.90;;;;;;5174416;28;20711;-45
2022/04/20 01:18:19;;;;;;;3.83;2.40;;;6.70;99.90;;;;;;5181256;28;20254;-45
2022/04/20 01:20:49;;;;;;;5.00;2.90;;;6.70;99.90;;;;;;5178986;28;20184;-49
2022/04/20 01:23:20;;;;;;;6.10;2.70;;;6.70;99.90;;;;;;5177530;28;20290;-44
2022/04/20 01:25:50;;;;;;;5.63;2.83;;;6.80;99.90;;;;;;5176015;28;20410;-45
2022/04/20 01:28:21;;;;;;;4.47;2.70;;;6.80;99.90;;;;;;5152062;28;20272;-44
2022/04/20 01:30:51;;;;;;;3.07;2.80;;;6.80;99.90;;;;;;5171161;28;20940;-43
2022/04/20 01:33:22;;;;;;;1.97;1.83;;;6.80;99.90;;;;;;5183544;28;20204;-44
2022/04/20 01:35:52;;;;;;;2.87;2.67;;;6.80;99.90;;;;;;5183394;28;20218;-43
2022/04/20 01:38:23;;;;;;;3.03;2.50;;;6.80;99.90;;;;;;5161164;28;20577;-44
2022/04/20 01:40:53;;;;;;;6.00;2.30;;;6.90;99.90;;;;;;5178342;28;20235;-42
2022/04/20 01:43:24;;;;;;;7.90;2.80;;;6.90;99.90;;;;;;5209217;23;20229;-49
2022/04/20 01:45:55;;;;;;;3.77;2.13;;;6.80;99.90;;;;;;5215994;28;20646;-49
2022/04/20 01:48:25;;;;;;;4.83;3.50;;;6.80;99.90;;;;;;5227185;28;20257;-49
2022/04/20 01:53:45;;;;;;;3.20;2.90;;;6.70;99.90;;;;;;5219252;28;20284;-48
2022/04/20 01:56:15;;;;;;;7.20;2.60;;;6.80;99.90;;;;;;5227996;28;20925;-48
2022/04/20 01:58:46;;;;;;;3.00;2.63;;;6.80;99.90;;;;;;5221762;28;20298;-49
2022/04/20 02:04:08;;;;;;;6.80;3.30;;;6.80;99.90;;;;;;5220010;28;20213;-48
2022/04/20 02:06:39;;;;;;;7.53;2.50;;;6.80;99.90;;;;;;5215288;28;20752;-48
2022/04/20 02:09:09;;;;;;;8.53;2.83;;;6.80;99.90;;;;;;5220262;28;20445;-48
2022/04/20 02:11:40;;;;;;;3.40;2.57;;;6.80;99.90;;;;;;5216449;28;20181;-49
2022/04/20 02:14:10;;;;;;;8.10;2.27;;;6.70;99.90;;;;;;5216185;28;20708;-48
2022/04/20 02:16:41;;;;;;;5.97;3.53;;;6.60;99.90;;;;;;5212976;28;20197;-47
2022/04/20 02:19:11;;;;;;;7.97;3.03;;;6.60;99.90;;;;;;5212931;28;20484;-49
2022/04/20 02:21:42;;;;;;;4.27;2.87;;;6.50;99.90;;;;;;5207273;28;20262;-48
2022/04/20 02:24:14;;;;;;;10.43;3.03;;;6.50;99.90;;;;;;5217910;28;20715;-49
2022/04/20 02:26:45;;;;;;;3.27;3.00;;;6.50;99.90;;;;;;5215370;28;20316;-49
2022/04/20 02:29:15;;;;;;;12.23;3.37;;;6.40;99.90;;;;;;5219508;28;20523;-47
2022/04/20 02:31:46;;;;;;;2.60;2.50;;;6.40;99.90;;;;;;5216847;28;20182;-48
2022/04/20 02:34:17;;;;;;;4.47;2.77;;;6.40;99.90;;;;;;5217277;28;20209;-48
2022/04/20 02:36:47;;;;;;;8.23;2.73;;;6.40;99.90;;;;;;5211151;28;20192;-47
2022/04/20 02:39:19;;;;;;;2.23;2.13;;;6.40;99.90;;;;;;5229597;28;20207;-50
2022/04/20 02:41:50;;;;;;;7.93;3.20;;;6.50;99.90;;;;;;5217313;28;20192;-49
2022/04/20 02:44:21;;;;;;;5.40;2.80;;;6.50;99.90;;;;;;5213598;28;20465;-48
2022/04/20 02:46:51;;;;;;;5.30;2.80;;;6.50;99.90;;;;;;5216310;28;20188;-47
2022/04/20 02:49:22;;;;;;;2.73;2.53;;;6.60;99.90;;;;;;5216031;28;20436;-49
2022/04/20 02:51:52;;;;;;;5.00;3.00;;;6.60;99.90;;;;;;5214534;28;20179;-49
2022/04/20 02:54:23;;;;;;;5.30;2.93;;;6.70;99.90;;;;;;5203267;28;20221;-48
2022/04/20 02:56:54;;;;;;;4.13;2.93;;;6.70;99.90;;;;;;5219559;28;20191;-48
2022/04/20 02:59:24;;;;;;;7.10;2.47;;;6.70;99.90;;;;;;5221113;28;20240;-49
2022/04/20 03:01:54;;;;;;;2.90;2.73;;;6.70;99.90;;;;;;5211923;28;20186;-48
2022/04/20 03:04:25;;;;;;;5.40;2.90;;;6.70;99.90;;;;;;5219315;28;20294;-48
2022/04/20 03:06:55;;;;;;;7.90;3.30;;;6.70;99.90;;;;;;5217127;28;20720;-48
2022/04/20 03:09:26;;;;;;;4.60;2.83;;;6.60;99.90;;;;;;5221893;28;20186;-49
2022/04/20 03:11:56;;;;;;;4.20;3.37;;;6.70;99.90;;;;;;5223703;28;20661;-48
2022/04/20 03:14:27;;;;;;;10.90;3.50;;;6.70;99.90;;;;;;5222643;28;20238;-47
2022/04/20 03:16:57;;;;;;;5.07;3.20;;;6.70;99.90;;;;;;5221388;28;20181;-48
2022/04/20 03:19:28;;;;;;;3.60;2.97;;;6.70;99.90;;;;;;5215446;28;20232;-48
2022/04/20 03:21:59;;;;;;;6.23;3.37;;;6.70;99.90;;;;;;5219508;28;20187;-48
2022/04/20 03:24:29;;;;;;;4.00;2.87;;;6.80;99.90;;;;;;5219021;28;20233;-48
2022/04/20 03:27:00;;;;;;;6.87;3.03;;;6.80;99.90;;;;;;5216329;28;20187;-49
2022/04/20 03:29:30;;;;;;;3.70;3.03;;;6.80;99.90;;;;;;5219571;28;20217;-47
2022/04/20 03:32:09;;;;;;;6.27;2.83;;;6.80;99.90;;;;;;5223032;28;20282;-47
2022/04/20 03:34:39;;;;;;;4.20;3.73;;;6.80;99.90;;;;;;5222158;28;20671;-48
2022/04/20 03:37:10;;;;;;;7.43;3.43;;;6.70;99.90;;;;;;5222716;28;20539;-49
2022/04/20 03:39:41;;;;;;;2.60;2.50;;;6.80;99.90;;;;;;5224566;28;20187;-48
2022/04/20 03:42:12;;;;;;;7.47;3.10;;;6.70;99.90;;;;;;5219573;28;20193;-50
2022/04/20 03:44:42;;;;;;;7.07;4.27;;;6.70;99.90;;;;;;5204073;28;20218;-48
2022/04/20 03:47:13;;;;;;;4.37;3.97;;;6.70;99.90;;;;;;5233846;28;20734;-50
2022/04/20 03:49:43;;;;;;;17.90;3.83;;;6.60;99.90;;;;;;5225337;28;20649;-48
2022/04/20 03:52:13;;;;;;;4.27;3.87;;;6.70;99.90;;;;;;5219741;28;20207;-48
2022/04/20 03:54:44;;;;;;;6.13;3.87;;;6.60;99.90;;;;;;5219056;28;20804;-47
2022/04/20 03:57:14;;;;;;;5.83;3.90;;;6.70;99.90;;;;;;5223534;28;20222;-48
2022/04/20 03:59:45;;;;;;;3.40;3.13;;;6.70;99.90;;;;;;5222589;28;20194;-46
2022/04/20 04:02:17;;;;;;;5.77;3.80;;;6.70;99.90;;;;;;5219044;28;20237;-48
2022/04/20 04:04:48;;;;;;;7.43;4.47;;;6.80;99.90;;;;;;5216833;28;20222;-49
2022/04/20 04:07:18;;;;;;;5.57;3.37;;;6.80;99.90;;;;;;5220391;28;20448;-49
2022/04/20 04:09:49;;;;;;;5.10;4.17;;;6.70;99.90;;;;;;5220757;28;20192;-49
2022/04/20 04:12:23;;;;;;;4.53;4.13;;;6.70;99.90;;;;;;5221111;28;20183;-46
2022/04/20 04:14:54;;;;;;;7.97;4.67;;;6.80;99.90;;;;;;5221674;28;20210;-48
2022/04/20 04:17:24;;;;;;;10.60;4.60;;;6.80;99.90;;;;;;5235202;28;20469;-50
2022/04/20 04:19:55;;;;;;;5.33;4.50;;;6.80;99.90;;;;;;5214014;28;20211;-51
2022/04/20 04:22:25;;;;;;;4.60;4.20;;;6.80;99.90;;;;;;5230215;28;21247;-48
2022/04/20 04:24:59;;;;;;;7.63;4.20;;;6.80;99.90;;;;;;5219189;28;20234;-49
2022/04/20 04:27:29;;;;;;;7.10;4.00;;;6.80;99.90;;;;;;5218443;28;20191;-53
2022/04/20 04:30:01;;;;;;;7.00;4.80;;;6.90;99.90;;;;;;5217244;28;20440;-49
2022/04/20 04:32:32;;;;;;;6.57;4.50;;;7.00;99.90;;;;;;5228558;28;20194;-48
2022/04/20 04:35:03;;;;;;;8.73;4.77;;;7.10;99.90;;;;;;5219430;28;20465;-49
2022/04/20 04:37:34;;;;;;;4.23;3.90;;;7.10;99.90;;;;;;5219167;28;20214;-48
2022/04/20 04:40:05;;;;;;;6.07;4.63;;;7.20;99.90;;;;;;5216294;28;20191;-49
2022/04/20 04:42:36;;;;;;;10.43;5.03;;;7.30;99.90;;;;;;5221850;28;20964;-48
2022/04/20 04:50:46;;;;;;;7.13;4.57;;;7.70;99.90;;;;;;5215197;28;20439;-51
2022/04/20 04:53:17;;;;;;;7.37;5.03;;;8.00;99.90;;;;;;5231464;28;20462;-48
2022/04/20 04:55:47;;;;;;;8.77;4.60;;;8.40;99.90;;;;;;5221277;28;20864;-55
2022/04/20 04:58:18;;;;;;;6.10;4.53;;;9.00;99.90;;;;;;5222703;28;20207;-47
2022/04/20 05:00:48;;;;;;;9.73;4.30;;;9.50;99.90;;;;;;5214775;28;20182;-48
2022/04/20 05:03:19;;;;;;;6.60;5.20;;;9.70;99.90;;;;;;5194056;28;20218;-49
2022/04/20 05:05:51;;;;;;;7.23;4.43;;;9.80;99.90;;;;;;5219740;28;20190;-48
2022/04/20 05:08:22;;;;;;;6.80;4.17;;;9.80;99.90;;;;;;5223141;28;20496;-48
2022/04/20 05:10:52;;;;;;;5.77;4.80;;;10.20;99.90;;;;;;5222860;28;20485;-49
2022/04/20 05:13:23;;;;;;;4.73;4.23;;;10.60;99.90;;;;;;5218780;28;20564;-48
2022/04/20 05:15:53;;;;;;;5.60;4.50;;;11.40;99.90;;;;;;5215687;28;20175;-50
2022/04/20 05:18:24;;;;;;;4.33;3.93;;;12.80;99.90;;;;;;5223056;28;22787;-49
2022/04/20 05:20:54;;;;;;;6.03;4.40;;;13.40;95.80;;;;;;5206801;28;20203;-49
2022/04/20 05:23:25;;;;;;;4.53;4.13;;;13.70;93.70;;;;;;5219401;28;21567;-49
2022/04/20 05:25:56;;;;;;;4.20;3.80;;;14.00;86.90;;;;;;5231582;28;20220;-47
2022/04/20 05:28:26;;;;;;;6.60;4.50;;;14.40;82.40;;;;;;5221592;28;20183;-50
2022/04/20 05:30:57;;;;;;;4.30;3.87;;;15.20;73.10;;;;;;5215742;28;20437;-53
2022/04/20 05:33:27;;;;;;;8.43;4.67;;;16.50;65.10;;;;;;5223024;28;20202;-48
2022/04/20 05:35:58;;;;;;;5.00;3.30;;;17.20;57.00;;;;;;5220002;28;20577;-50
2022/04/20 05:44:11;;;;;;;12.20;4.10;;;18.20;48.60;;;;;;5215971;28;20603;-49
2022/04/20 05:46:42;;;;;;;4.93;4.17;;;17.80;49.70;;;;;;5222192;28;20511;-48
2022/04/20 05:49:12;;;;;;;6.67;4.50;;;18.10;49.50;;;;;;5208963;28;20437;-49
2022/04/20 05:51:43;;;;;;;4.23;3.93;;;18.60;48.40;;;;;;5221023;28;20179;-47
2022/04/20 05:54:13;;;;;;;4.30;3.47;;;19.70;45.50;;;;;;5215566;28;20286;-48
2022/04/20 05:56:43;;;;;;;4.47;4.07;;;20.00;44.10;;;;;;5230502;28;20194;-50
2022/04/20 05:59:14;;;;;;;7.30;4.23;;;19.70;44.70;;;;;;5218017;28;20261;-50
2022/04/20 06:01:45;;;;;;;5.37;4.30;;;19.90;43.10;;;;;;5214367;28;20199;-49
2022/04/20 06:04:16;;;;;;;7.43;4.37;;;18.10;44.00;;;;;;5218340;28;20214;-50
2022/04/20 06:06:46;;;;;;;6.00;4.87;;;15.70;49.00;;;;;;5217439;28;20180;-48
2022/04/20 06:09:17;;;;;;;10.33;4.47;;;13.60;54.80;;;;;;5229070;28;20783;-48
2022/04/20 06:11:48;;;;;;;10.00;4.40;;;12.40;61.90;;;;;;5221430;28;20309;-48
2022/04/20 06:14:19;;;;;;;8.23;4.20;;;11.70;82.60;;;;;;5215149;28;22846;-47
2022/04/20 06:16:49;;;;;;;5.40;4.60;;;11.30;93.90;;;;;;5219564;28;20183;-47
2022/04/20 06:19:20;;;;;;;5.50;5.00;;;11.10;97.60;;;;;;5215003;28;20827;-48
2022/04/20 06:21:50;;;;;;;11.90;4.40;;;11.20;99.90;;;;;;5222017;28;20677;-47
2022/04/20 06:24:21;;;;;;;4.87;4.47;;;11.40;98.90;;;;;;5221449;28;20191;-52
2022/04/20 06:26:51;;;;;;;3.83;3.53;;;11.80;99.20;;;;;;5236780;28;20183;-48
2022/04/20 06:29:22;;;;;;;4.20;3.90;;;14.20;85.50;;;;;;5215017;28;20193;-48
2022/04/20 06:31:53;;;;;;;4.30;3.90;;;16.70;58.50;;;;;;5216632;28;20204;-48
2022/04/20 06:34:23;;;;;;;8.13;4.00;;;17.60;51.20;;;;;;5221645;28;20195;-49
2022/04/20 06:36:54;;;;;;;3.67;3.37;;;18.00;49.60;;;;;;5219892;28;20236;-47
2022/04/20 06:39:24;;;;;;;5.70;4.30;;;18.10;47.70;;;;;;5224965;28;20242;-51
2022/04/20 06:41:55;;;;;;;8.47;4.30;;;16.20;48.60;;;;;;5228578;28;20269;-51
2022/04/20 06:44:25;;;;;;;3.90;3.60;;;14.20;53.60;;;;;;5215218;28;20226;-49
2022/04/20 06:46:56;;;;;;;4.83;4.33;;;14.30;57.60;;;;;;5205991;28;20180;-49
2022/04/20 06:49:26;;;;;;;5.20;4.20;;;15.10;54.40;;;;;;5223548;28;20189;-49
2022/04/20 07:00:25;;;;;;;5.03;3.90;;;12.00;82.10;;;;;;5215290;28;20477;-51
2022/04/20 07:03:04;;;;;;;6.40;4.67;;;12.40;77.00;;;;;;5226467;28;20444;-49
2022/04/20 07:05:37;;;;;;;5.50;3.53;;;11.90;79.70;;;;;;5224992;28;20433;-48
2022/04/20 07:08:08;;;;;;;5.43;3.97;;;11.70;83.40;;;;;;5222564;28;20438;-47
2022/04/20 07:10:38;;;;;;;4.93;4.53;;;11.30;87.80;;;;;;5224331;28;20448;-48
2022/04/20 07:13:09;;;;;;;6.70;4.27;;;11.20;91.20;;;;;;5220213;28;20229;-49
2022/04/20 07:15:40;;;;;;;3.80;3.50;;;11.00;91.70;;;;;;5223628;28;20183;-48
2022/04/20 07:18:11;;;;;;;4.90;3.70;;;10.90;93.20;;;;;;5230565;28;20266;-48
2022/04/20 07:20:42;;;;;;;4.00;3.23;;;10.80;95.10;;;;;;5208084;28;20462;-47
2022/04/20 07:23:12;;;;;;;4.07;3.77;;;10.80;95.40;;;;;;5223124;28;20469;-47
2022/04/20 07:25:43;;;;;;;7.80;3.80;;;10.70;96.10;;;;;;5225819;28;20191;-47
2022/04/20 07:28:13;;;;;;;8.63;3.80;;;10.60;96.80;;;;;;5245944;28;20662;-49
2022/04/20 07:30:44;;;;;;;4.63;3.40;;;10.40;97.50;;;;;;5227087;28;20190;-47
2022/04/20 07:33:15;;;;;;;3.73;3.30;;;10.20;99.20;;;;;;5228906;28;20269;-48
2022/04/20 07:35:46;;;;;;;2.87;2.77;;;10.20;99.40;;;;;;5225503;28;20716;-48
2022/04/20 07:38:16;;;;;;;3.30;3.00;;;10.20;99.90;;;;;;5224300;28;20488;-49
2022/04/20 07:40:47;;;;;;;9.67;3.40;;;10.30;99.90;;;;;;5227593;28;20175;-48
2022/04/20 07:43:17;;;;;;;3.63;3.07;;;10.30;99.90;;;;;;5250857;22;20206;-46
2022/04/20 07:45:48;;;;;;;4.40;3.90;;;10.20;99.90;;;;;;5243116;28;20511;-51
2022/04/20 07:48:18;;;;;;;4.57;3.13;;;10.30;99.50;;;;;;5219447;28;20203;-59
2022/04/20 07:50:49;;;;;;;10.37;4.10;;;10.50;99.50;;;;;;5219486;28;20188;-47
2022/04/20 07:53:20;;;;;;;10.77;3.10;;;10.60;98.60;;;;;;5222060;28;20584;-47
2022/04/20 07:55:50;;;;;;;3.27;2.97;;;10.90;97.20;;;;;;5224806;28;20184;-47
2022/04/20 07:58:21;;;;;;;3.60;3.40;;;11.60;95.00;;;;;;5242453;28;20207;-46
2022/04/20 08:00:53;;;;;;;5.30;3.27;;;12.60;90.30;;;;;;5238622;28;20197;-45
2022/04/20 08:03:24;;;;;;;5.40;3.27;;;13.70;70.00;;;;;;5221057;28;20195;-46
2022/04/20 08:05:56;;;;;;;3.30;2.60;;;14.40;60.80;;;;;;5225122;28;20453;-47
2022/04/20 08:08:26;;;;;;;5.33;2.73;;;14.90;56.10;;;;;;5226465;28;20274;-45
2022/04/20 08:10:57;;;;;;;2.60;2.40;;;15.20;52.00;;;;;;5224642;28;20517;-46
2022/04/20 08:16:16;;;;;;;4.70;2.80;;;15.50;49.60;;;;;;5227443;28;20193;-46
2022/04/20 08:18:47;;;;;;;3.60;3.30;;;15.70;48.50;;;;;;5223838;28;20462;-46
2022/04/20 08:21:17;;;;;;;2.83;2.57;;;15.90;47.90;;;;;;5224723;28;20304;-45
2022/04/20 08:23:48;;;;;;;4.10;3.03;;;15.50;46.60;;;;;;5224335;28;20206;-46
2022/04/20 08:26:19;;;;;;;2.20;2.10;;;15.10;46.50;;;;;;5220989;28;20747;-46
2022/04/20 08:28:49;;;;;;;6.43;2.70;;;14.80;46.80;;;;;;5221893;28;20179;-46
2022/04/20 08:31:20;;;;;;;4.83;2.63;;;14.50;47.30;;;;;;5242104;28;20183;-48
2022/04/20 08:33:51;;;;;;;2.70;2.60;;;14.20;47.80;;;;;;5208599;28;20220;-47
2022/04/20 08:36:21;;;;;;;6.13;2.13;;;14.10;48.40;;;;;;5223595;28;20499;-47
2022/04/20 08:38:52;;;;;;;2.43;2.23;;;14.20;48.00;;;;;;5221020;28;20567;-47
2022/04/20 08:41:23;;;;;;;7.03;2.20;;;14.00;48.50;;;;;;5226567;28;20171;-47
2022/04/20 08:43:55;;;;;;;2.13;2.10;;;13.80;48.70;;;;;;5218265;28;20214;-47
2022/04/20 08:46:29;;;;;;;3.73;2.20;;;13.50;48.70;;;;;;5225876;28;20433;-49
2022/04/20 08:49:00;;;;;;;13.93;2.63;;;13.30;49.30;;;;;;5204627;28;20437;-48
2022/04/20 08:52:37;;;;;;;2.20;2.10;;;13.20;50.10;;;;;;5224659;28;20805;-48
2022/04/20 08:54:23;;;;;;;3.20;1.70;;;13.00;50.50;;;;;;5223462;28;20284;-48
2022/04/20 08:59:44;;;;;;;5.90;2.30;;;12.60;51.30;;;;;;5216538;28;20252;-49
2022/04/20 09:02:16;;;;;;;2.13;1.93;;;12.40;52.80;;;;;;5221520;28;20438;-49
2022/04/20 09:04:47;;;;;;;5.33;2.70;;;12.20;54.40;;;;;;5206929;28;20444;-48
2022/04/20 09:07:18;;;;;;;2.53;1.80;;;11.80;55.90;;;;;;5222303;28;20445;-50
2022/04/20 09:09:50;;;;;;;2.13;2.00;;;11.50;57.80;;;;;;5199779;28;20183;-48
2022/04/20 09:12:25;;;;;;;3.57;2.23;;;11.30;60.10;;;;;;5220497;28;20457;-49
2022/04/20 09:14:56;;;;;;;2.90;2.00;;;11.10;64.80;;;;;;5220747;28;20453;-48
2022/04/20 09:17:29;;;;;;;2.00;1.90;;;11.00;71.40;;;;;;5216307;28;20460;-48
2022/04/20 09:20:00;;;;;;;2.57;2.37;;;11.00;82.30;;;;;;5216892;28;20445;-49
2022/04/20 09:22:30;;;;;;;3.13;2.20;;;10.80;91.80;;;;;;5199312;28;20441;-48
2022/04/20 09:25:08;;;;;;;2.10;2.00;;;10.70;96.30;;;;;;5223311;28;20264;-48
2022/04/20 09:27:40;;;;;;;2.90;2.40;;;10.60;98.50;;;;;;5221229;28;20178;-48
2022/04/20 09:30:14;;;;;;;3.90;2.80;;;10.40;99.90;;;;;;5222629;28;20567;-48
2022/04/20 09:32:46;;;;;;;3.17;2.77;;;10.40;99.90;;;;;;5219434;28;20524;-48
2022/04/20 09:35:21;;;;;;;2.43;2.33;;;10.20;99.90;;;;;;5220436;28;20461;-48
2022/04/20 09:38:05;;;;;;;2.80;2.60;;;10.30;99.90;;;;;;5224493;28;20555;-49
2022/04/20 09:40:38;;;;;;;4.40;2.80;;;10.40;99.90;;;;;;5217061;28;20433;-48
2022/04/20 09:43:15;;;;;;;5.37;3.00;;;10.60;99.90;;;;;;5217739;28;20495;-47
2022/04/20 09:46:04;;;;;;;5.83;3.70;;;10.60;99.90;;;;;;5217763;28;21193;-50
2022/04/20 09:48:50;;;;;;;4.93;2.70;;;10.70;99.90;;;;;;5216535;28;20441;-49
2022/04/20 09:51:21;;;;;;;4.73;2.40;;;10.80;99.90;;;;;;5232107;28;20961;-48
2022/04/20 09:53:53;;;;;;;3.00;2.60;;;11.00;99.90;;;;;;5218686;28;20568;-50
2022/04/20 09:56:27;;;;;;;3.57;2.63;;;11.00;99.90;;;;;;5220934;28;20186;-47
2022/04/20 09:58:59;;;;;;;4.07;2.47;;;11.20;99.90;;;;;;5219097;28;20475;-47
2022/04/20 10:01:35;;;;;;;3.33;3.03;;;11.10;99.90;;;;;;5219898;28;20441;-49
2022/04/20 10:04:06;;;;;;;4.47;2.47;;;11.20;99.90;;;;;;5219213;28;20861;-48
2022/04/20 10:06:41;;;;;;;2.90;2.50;;;11.40;99.90;;;;;;5222174;28;20468;-49
2022/04/20 10:09:11;;;;;;;4.87;3.23;;;11.60;99.90;;;;;;5221207;28;21035;-47
2022/04/20 10:11:42;;;;;;;4.00;3.20;;;11.70;99.90;;;;;;5217983;28;20524;-51
2022/04/20 10:17:03;;;;;;;3.20;2.90;;;11.90;99.90;;;;;;5223915;28;20201;-48
2022/04/20 10:19:36;;;;;;;10.30;3.00;;;12.30;99.90;;;;;;5222636;28;20476;-49
2022/04/20 10:22:08;;;;;;;3.10;2.80;;;12.70;99.90;;;;;;5219846;28;20449;-49
2022/04/20 10:24:45;;;;;;;1.90;1.77;;;13.00;99.70;;;;;;5218885;28;20469;-50
2022/04/20 10:27:24;;;;;;;6.83;3.63;;;12.90;95.10;;;;;;5217582;28;20429;-48
2022/04/20 10:30:01;;;;;;;7.80;3.50;;;13.10;95.50;;;;;;5216134;28;20429;-49
2022/04/20 10:32:48;;;;;;;5.50;3.20;;;13.30;98.70;;;;;;5213386;28;20438;-49
2022/04/20 10:35:19;;;;;;;4.17;3.77;;;13.10;98.30;;;;;;5220820;28;20463;-49
2022/04/20 10:38:10;;;;;;;10.83;3.70;;;13.00;98.80;;;;;;5221559;28;20941;-49
2022/04/20 10:41:03;;;;;;;16.70;8.20;;;12.80;99.90;;;;;;5221203;28;20429;-50
2022/04/20 10:43:38;;;;;;;4.03;3.70;;;12.60;99.90;;;;;;5221844;28;20869;-49
2022/04/20 10:46:20;;;;;;;3.10;2.80;;;12.50;99.90;;;;;;5215550;28;20437;-50
2022/04/20 10:49:15;;;;;;;9.40;5.63;;;12.40;99.90;;;;;;5220680;28;20442;-49
2022/04/20 10:51:48;;;;;;;4.90;2.67;;;12.20;99.90;;;;;;5221135;28;20446;-50
2022/04/20 10:54:24;;;;;;;4.20;3.23;;;12.20;99.90;;;;;;5216483;28;20493;-48
2022/04/20 10:57:05;;;;;;;3.50;3.10;;;12.00;99.90;;;;;;5213454;28;20441;-48
2022/04/20 10:59:39;;;;;;;3.20;2.80;;;11.80;99.90;;;;;;5217350;28;20496;-51
2022/04/20 11:02:12;;;;;;;2.90;2.70;;;12.00;99.90;;;;;;5221207;28;21501;-48
2022/04/20 11:04:46;;;;;;;2.97;2.60;;;12.30;99.90;;;;;;5236673;28;20983;-49
2022/04/20 11:07:32;;;;;;;4.07;2.77;;;12.30;99.90;;;;;;5222429;28;20976;-48
2022/04/20 11:10:05;;;;;;;2.83;2.50;;;12.70;99.90;;;;;;5224828;28;20433;-49
2022/04/20 11:18:39;;;;;;;3.13;2.83;;;13.50;96.40;;;;;;5211096;28;20537;-49
2022/04/20 11:21:16;;;;;;;6.47;2.60;;;13.40;94.20;;;;;;5213189;28;20536;-49
2022/04/20 11:23:58;;;;;;;17.63;9.90;;;13.10;92.50;;;;;;5207894;28;20463;-48
2022/04/20 11:26:34;;;;;;;5.23;3.30;;;13.20;93.30;;;;;;5209049;28;20442;-50
2022/04/20 11:29:22;;;;;;;6.40;2.90;;;13.40;92.70;;;;;;5221840;28;20422;-49
2022/04/20 11:31:59;;;;;;;2.20;2.10;;;13.40;91.50;;;;;;5221601;28;20464;-48
2022/04/20 11:34:36;;;;;;;2.93;2.10;;;13.30;90.60;;;;;;5231146;28;20461;-49
2022/04/20 11:37:07;;;;;;;2.60;2.50;;;13.10;90.80;;;;;;5224013;28;20444;-49
2022/04/20 11:39:37;;;;;;;4.13;3.63;;;13.00;91.50;;;;;;5223546;28;20473;-47
2022/04/20 11:42:10;;;;;;;13.77;6.77;;;13.00;92.20;;;;;;5227313;28;20437;-48
2022/04/20 11:44:41;;;;;;;3.00;2.80;;;13.20;92.80;;;;;;5242490;28;20616;-47
2022/04/20 11:47:12;;;;;;;3.37;3.03;;;13.40;91.90;;;;;;5239611;28;20437;-50
2022/04/20 11:49:46;;;;;;;2.73;2.60;;;13.60;91.40;;;;;;5224422;28;20851;-51
2022/04/20 11:52:21;;;;;;;4.17;3.13;;;13.70;90.30;;;;;;5226962;28;20260;-52
2022/04/20 11:54:51;;;;;;;5.17;3.07;;;14.10;88.50;;;;;;5222944;28;20495;-52
2022/04/20 11:57:22;;;;;;;2.87;1.80;;;14.40;84.20;;;;;;5219089;28;20473;-51
2022/04/20 11:59:52;;;;;;;2.70;2.40;;;14.70;80.30;;;;;;5223797;28;20681;-52
2022/04/20 12:02:24;;;;;;;2.70;2.53;;;14.80;76.80;;;;;;5222898;28;20270;-49
2022/04/20 12:05:12;;;;;;;2.87;1.93;;;15.10;75.30;;;;;;5226998;28;20289;-52
2022/04/20 12:07:43;;;;;;;1.63;1.53;;;15.20;69.00;;;;;;5241322;28;20445;-52
2022/04/20 12:10:14;;;;;;;2.40;2.20;;;15.10;66.60;;;;;;5226402;28;20528;-51
2022/04/20 12:12:45;;;;;;;5.00;2.60;;;15.00;67.30;;;;;;5223812;28;20193;-52
2022/04/20 12:15:20;;;;;;;2.57;2.27;;;14.80;67.10;;;;;;5216370;28;20469;-53
2022/04/20 12:17:51;;;;;;;3.63;2.33;;;14.70;67.10;;;;;;5221202;28;20203;-52
2022/04/20 12:20:24;;;;;;;3.77;3.03;;;14.60;68.00;;;;;;5204726;28;20638;-54
2022/04/20 12:23:07;;;;;;;9.93;5.43;;;14.60;66.20;;;;;;5221578;28;20187;-53
2022/04/20 12:25:38;;;;;;;4.97;2.80;;;14.40;66.00;;;;;;5227864;28;21062;-55
2022/04/20 12:28:35;;;;;;;3.10;2.90;;;14.20;66.20;;;;;;5212261;28;20469;-50
2022/04/20 12:31:01;;;;;;;5.37;3.70;;;14.30;66.90;;;;;;5218947;28;20802;-50
2022/04/20 12:33:32;;;;;;;3.07;2.60;;;14.60;65.70;;;;;;5221779;28;20545;-53
2022/04/20 12:36:11;;;;;;;4.30;3.90;;;14.90;65.30;;;;;;5215592;28;20528;-52
2022/04/20 12:38:45;;;;;;;4.60;2.60;;;15.50;64.20;;;;;;5222611;28;20284;-52
2022/04/20 12:41:55;;;;;;;7.97;3.93;;;15.80;60.60;;;;;;5226601;28;20464;-48
2022/04/20 12:44:51;;;;;;;3.47;3.17;;;16.00;59.70;;;;;;5221900;28;20453;-52
2022/04/20 12:47:22;;;;;;;4.17;3.70;;;15.80;58.20;;;;;;5218098;28;21156;-53
2022/04/20 12:49:59;;;;;;;3.57;3.20;;;15.60;57.80;;;;;;5242801;28;20469;-54
2022/04/20 12:52:30;;;;;;;3.47;3.17;;;15.70;58.10;;;;;;5237306;28;20182;-50
2022/04/20 12:55:13;;;;;;;9.30;4.20;;;15.60;58.10;;;;;;5217970;28;20537;-52
2022/04/20 13:02:01;;;;;;;6.43;3.50;;;15.90;58.00;;;;;;5219200;28;20936;-50
2022/04/20 13:03:39;;;;;;;3.30;3.10;;;16.10;57.30;;;;;;5210606;28;20499;-49
2022/04/20 13:06:12;;;;;;;2.87;2.67;;;15.90;56.10;;;;;;5223016;28;20463;-51
2022/04/20 13:08:45;;;;;;;3.63;3.30;;;15.70;56.50;;;;;;5214730;28;20683;-51
2022/04/20 13:11:17;;;;;;;7.50;2.83;;;15.50;57.10;;;;;;5216154;28;20429;-52
2022/04/20 13:13:47;;;;;;;8.80;3.97;;;15.40;56.80;;;;;;5223949;28;20449;-51
2022/04/20 13:16:19;;;;;;;5.70;4.07;;;15.20;57.30;;;;;;5214448;28;20444;-51
2022/04/20 13:18:51;;;;;;;2.90;2.70;;;15.20;58.10;;;;;;5216936;28;20222;-53
2022/04/20 13:21:23;;;;;;;4.93;4.10;;;15.40;57.40;;;;;;5219584;28;20432;-50
2022/04/20 13:23:54;;;;;;;3.97;3.67;;;15.40;56.20;;;;;;5214693;28;20948;-52
2022/04/20 13:29:16;;;;;;;3.33;2.27;;;15.50;55.50;;;;;;5226007;28;20421;-51
2022/04/20 13:31:47;;;;;;;4.93;2.30;;;15.40;55.20;;;;;;5211016;28;21426;-52
2022/04/20 13:34:17;;;;;;;4.80;2.70;;;15.30;55.60;;;;;;5220567;28;20511;-52
2022/04/20 13:36:48;;;;;;;6.17;2.60;;;15.30;55.70;;;;;;5224666;28;20269;-52
2022/04/20 13:39:20;;;;;;;3.90;2.77;;;15.30;56.00;;;;;;5218511;28;20206;-51
2022/04/20 13:41:50;;;;;;;2.53;2.33;;;15.10;56.00;;;;;;5218716;28;20513;-52
2022/04/20 13:44:21;;;;;;;2.60;2.40;;;15.10;56.30;;;;;;5231275;23;20587;-50
2022/04/20 13:46:52;;;;;;;2.40;2.30;;;15.20;56.60;;;;;;5241297;28;20179;-48
2022/04/20 13:49:24;;;;;;;4.57;2.70;;;15.10;56.10;;;;;;5219513;28;20565;-50
2022/04/20 13:51:55;;;;;;;3.73;3.37;;;14.90;56.60;;;;;;5222366;28;20445;-49
2022/04/20 13:54:25;;;;;;;3.23;3.03;;;15.00;56.80;;;;;;5219296;28;20508;-50
2022/04/20 13:56:56;;;;;;;5.00;2.73;;;15.00;57.00;;;;;;5221835;28;20296;-50
2022/04/20 13:59:27;;;;;;;3.30;1.87;;;15.10;56.80;;;;;;5216522;28;20203;-49
2022/04/20 14:01:57;;;;;;;2.30;2.03;;;15.10;56.40;;;;;;5217537;28;20437;-48